sensor_id;sensor_type;location;lat;lon;timestamp;temperature;humidity
19152;DHT22;9708;53.114;9.388;2022-08-16T00:00:32;19.80;99.90
19152;DHT22;9708;53.114;9.388;2022-08-16T00:03:01;19.70;99.90
19152;DHT22;9708;53.114;9.388;2022-08-16T00:05:29;19.60;99.90
19152;DHT22;9708;53.114;9.388;2022-08-16T00:07:58;19.50;99.90
19152;DHT22;9708;53.114;9.388;2022-08-16T00:10:27;19.50;99.90
19152;DHT22;9708;53.114;9.388;2022-08-16T00:12:58;19.50;99.90
19152;DHT22;9708;53.114;9.388;2022-08-16T00:15:27;19.40;99.90
19152;DHT22;9708;53.114;9.388;2022-08-16T00:17:55;19.40;99.90
19152;DHT22;9708;53.114;9.388;2022-08-16T00:20:24;19.40;99.90
19152;DHT22;9708;53.114;9.388;2022-08-16T00:22:51;19.40;99.90
19152;DHT22;9708;53.114;9.388;2022-08-16T00:25:21;19.40;99.90
19152;DHT22;9708;53.114;9.388;2022-08-16T00:27:48;19.30;99.90
19152;DHT22;9708;53.114;9.388;2022-08-16T00:30:17;19.30;99.90
19152;DHT22;9708;53.114;9.388;2022-08-16T00:32:46;19.40;99.90
19152;DHT22;9708;53.114;9.388;2022-08-16T00:35:15;19.30;99.90
19152;DHT22;9708;53.114;9.388;2022-08-16T00:37:44;19.40;99.90
19152;DHT22;9708;53.114;9.388;2022-08-16T00:40:13;19.30;99.90
19152;DHT22;9708;53.114;9.388;2022-08-16T00:42:40;19.20;99.90
19152;DHT22;9708;53.114;9.388;2022-08-16T00:45:14;19.20;99.90
19152;DHT22;9708;53.114;9.388;2022-08-16T00:47:44;19.20;99.90
19152;DHT22;9708;53.114;9.388;2022-08-16T00:50:12;19.20;99.90
19152;DHT22;9708;53.114;9.388;2022-08-16T00:52:40;19.10;99.90
19152;DHT22;9708;53.114;9.388;2022-08-16T00:55:08;19.10;99.90
19152;DHT22;9708;53.114;9.388;2022-08-16T00:57:35;19.00;99.90
19152;DHT22;9708;53.114;9.388;2022-08-16T01:00:04;19.00;99.90
19152;DHT22;9708;53.114;9.388;2022-08-16T01:02:32;19.00;99.90
19152;DHT22;9708;53.114;9.388;2022-08-16T01:04:59;19.00;99.90
19152;DHT22;9708;53.114;9.388;2022-08-16T01:07:27;18.90;99.90
19152;DHT22;9708;53.114;9.388;2022-08-16T01:09:54;18.90;99.90
19152;DHT22;9708;53.114;9.388;2022-08-16T01:12:22;18.90;99.90
19152;DHT22;9708;53.114;9.388;2022-08-16T01:14:52;18.90;99.90
19152;DHT22;9708;53.114;9.388;2022-08-16T01:17:20;18.80;99.90
19152;DHT22;9708;53.114;9.388;2022-08-16T01:19:51;18.90;99.90
19152;DHT22;9708;53.114;9.388;2022-08-16T01:22:26;18.90;99.90
19152;DHT22;9708;53.114;9.388;2022-08-16T01:25:00;18.80;99.90
19152;DHT22;9708;53.114;9.388;2022-08-16T01:27:30;18.80;99.90
19152;DHT22;9708;53.114;9.388;2022-08-16T01:30:01;18.70;99.90
19152;DHT22;9708;53.114;9.388;2022-08-16T01:32:30;18.70;99.90
19152;DHT22;9708;53.114;9.388;2022-08-16T01:35:03;18.60;99.90
19152;DHT22;9708;53.114;9.388;2022-08-16T01:37:41;18.60;99.90
19152;DHT22;9708;53.114;9.388;2022-08-16T01:40:11;18.60;99.90
19152;DHT22;9708;53.114;9.388;2022-08-16T01:42:39;18.60;99.90
19152;DHT22;9708;53.114;9.388;2022-08-16T01:45:06;18.60;99.90
19152;DHT22;9708;53.114;9.388;2022-08-16T01:47:35;18.60;99.90
19152;DHT22;9708;53.114;9.388;2022-08-16T01:50:03;18.60;99.90
19152;DHT22;9708;53.114;9.388;2022-08-16T01:52:31;18.60;99.90
19152;DHT22;9708;53.114;9.388;2022-08-16T01:54:58;18.50;99.90
19152;DHT22;9708;53.114;9.388;2022-08-16T01:57:27;18.50;99.90
19152;DHT22;9708;53.114;9.388;2022-08-16T01:59:54;18.50;99.90
19152;DHT22;9708;53.114;9.388;2022-08-16T02:02:21;18.50;99.90
19152;DHT22;9708;53.114;9.388;2022-08-16T02:04:49;18.50;99.90
19152;DHT22;9708;53.114;9.388;2022-08-16T02:07:16;18.60;99.90
19152;DHT22;9708;53.114;9.388;2022-08-16T02:09:44;18.60;99.90
19152;DHT22;9708;53.114;9.388;2022-08-16T02:12:12;18.60;99.90
19152;DHT22;9708;53.114;9.388;2022-08-16T02:14:42;18.60;99.90
19152;DHT22;9708;53.114;9.388;2022-08-16T02:17:10;18.60;99.90
19152;DHT22;9708;53.114;9.388;2022-08-16T02:19:39;18.60;99.90
19152;DHT22;9708;53.114;9.388;2022-08-16T02:22:08;18.70;99.90
19152;DHT22;9708;53.114;9.388;2022-08-16T02:24:37;18.70;99.90
19152;DHT22;9708;53.114;9.388;2022-08-16T02:27:04;18.70;99.90
19152;DHT22;9708;53.114;9.388;2022-08-16T02:29:31;18.70;99.90
19152;DHT22;9708;53.114;9.388;2022-08-16T02:31:59;18.80;99.90
19152;DHT22;9708;53.114;9.388;2022-08-16T02:34:26;18.80;99.90
19152;DHT22;9708;53.114;9.388;2022-08-16T02:36:54;18.80;99.90
19152;DHT22;9708;53.114;9.388;2022-08-16T02:39:21;18.80;99.90
19152;DHT22;9708;53.114;9.388;2022-08-16T02:41:49;18.80;99.90
19152;DHT22;9708;53.114;9.388;2022-08-16T02:44:16;18.80;99.90
19152;DHT22;9708;53.114;9.388;2022-08-16T02:46:43;18.80;99.90
19152;DHT22;9708;53.114;9.388;2022-08-16T02:49:12;18.90;99.90
19152;DHT22;9708;53.114;9.388;2022-08-16T02:51:40;18.80;99.90
19152;DHT22;9708;53.114;9.388;2022-08-16T02:54:08;18.80;99.90
19152;DHT22;9708;53.114;9.388;2022-08-16T02:56:36;18.80;99.90
19152;DHT22;9708;53.114;9.388;2022-08-16T02:59:03;18.80;99.90
19152;DHT22;9708;53.114;9.388;2022-08-16T03:01:32;18.80;99.90
19152;DHT22;9708;53.114;9.388;2022-08-16T03:04:00;18.80;99.90
19152;DHT22;9708;53.114;9.388;2022-08-16T03:06:29;18.80;99.90
19152;DHT22;9708;53.114;9.388;2022-08-16T03:08:56;18.80;99.90
19152;DHT22;9708;53.114;9.388;2022-08-16T03:11:23;18.80;99.90
19152;DHT22;9708;53.114;9.388;2022-08-16T03:13:51;18.80;99.90
19152;DHT22;9708;53.114;9.388;2022-08-16T03:16:19;18.70;99.90
19152;DHT22;9708;53.114;9.388;2022-08-16T03:18:47;18.70;99.90
19152;DHT22;9708;53.114;9.388;2022-08-16T03:21:14;18.70;99.90
19152;DHT22;9708;53.114;9.388;2022-08-16T03:23:42;18.60;99.90
19152;DHT22;9708;53.114;9.388;2022-08-16T03:26:09;18.50;99.90
19152;DHT22;9708;53.114;9.388;2022-08-16T03:28:36;18.50;99.90
19152;DHT22;9708;53.114;9.388;2022-08-16T03:31:03;18.40;99.90
19152;DHT22;9708;53.114;9.388;2022-08-16T03:33:31;18.40;99.90
19152;DHT22;9708;53.114;9.388;2022-08-16T03:35:58;18.30;99.90
19152;DHT22;9708;53.114;9.388;2022-08-16T03:38:26;18.30;99.90
19152;DHT22;9708;53.114;9.388;2022-08-16T03:40:55;18.30;99.90
19152;DHT22;9708;53.114;9.388;2022-08-16T03:43:23;18.30;99.90
19152;DHT22;9708;53.114;9.388;2022-08-16T03:45:52;18.30;99.90
19152;DHT22;9708;53.114;9.388;2022-08-16T03:48:20;18.20;99.90
19152;DHT22;9708;53.114;9.388;2022-08-16T03:50:48;18.20;99.90
19152;DHT22;9708;53.114;9.388;2022-08-16T03:53:15;18.20;99.90
19152;DHT22;9708;53.114;9.388;2022-08-16T03:55:42;18.20;99.90
19152;DHT22;9708;53.114;9.388;2022-08-16T03:58:11;18.20;99.90
19152;DHT22;9708;53.114;9.388;2022-08-16T04:00:37;18.20;99.90
19152;DHT22;9708;53.114;9.388;2022-08-16T04:03:05;18.20;99.90
19152;DHT22;9708;53.114;9.388;2022-08-16T04:05:33;18.20;99.90
19152;DHT22;9708;53.114;9.388;2022-08-16T04:08:00;18.20;99.90
19152;DHT22;9708;53.114;9.388;2022-08-16T04:10:27;18.10;99.90
19152;DHT22;9708;53.114;9.388;2022-08-16T04:12:56;18.10;99.90
19152;DHT22;9708;53.114;9.388;2022-08-16T04:15:25;18.00;99.90
19152;DHT22;9708;53.114;9.388;2022-08-16T04:17:55;18.00;99.90
19152;DHT22;9708;53.114;9.388;2022-08-16T04:20:23;18.00;99.90
19152;DHT22;9708;53.114;9.388;2022-08-16T04:22:50;18.10;99.90
19152;DHT22;9708;53.114;9.388;2022-08-16T04:25:17;18.00;99.90
19152;DHT22;9708;53.114;9.388;2022-08-16T04:27:45;18.00;99.90
19152;DHT22;9708;53.114;9.388;2022-08-16T04:30:15;18.00;99.90
19152;DHT22;9708;53.114;9.388;2022-08-16T04:32:44;18.00;99.90
19152;DHT22;9708;53.114;9.388;2022-08-16T04:35:14;18.00;99.90
19152;DHT22;9708;53.114;9.388;2022-08-16T04:37:42;18.10;99.90
19152;DHT22;9708;53.114;9.388;2022-08-16T04:40:10;18.10;99.90
19152;DHT22;9708;53.114;9.388;2022-08-16T04:42:38;18.20;99.90
19152;DHT22;9708;53.114;9.388;2022-08-16T04:45:09;18.20;99.90
19152;DHT22;9708;53.114;9.388;2022-08-16T04:47:36;18.30;99.90
19152;DHT22;9708;53.114;9.388;2022-08-16T04:50:08;18.30;99.90
19152;DHT22;9708;53.114;9.388;2022-08-16T04:52:35;18.20;99.90
19152;DHT22;9708;53.114;9.388;2022-08-16T04:55:08;18.30;99.90
19152;DHT22;9708;53.114;9.388;2022-08-16T04:57:35;18.30;99.90
19152;DHT22;9708;53.114;9.388;2022-08-16T05:00:05;18.30;99.90
19152;DHT22;9708;53.114;9.388;2022-08-16T05:02:32;18.40;99.90
19152;DHT22;9708;53.114;9.388;2022-08-16T05:04:59;18.40;99.90
19152;DHT22;9708;53.114;9.388;2022-08-16T05:07:27;18.50;99.90
19152;DHT22;9708;53.114;9.388;2022-08-16T05:09:54;18.60;99.90
19152;DHT22;9708;53.114;9.388;2022-08-16T05:12:21;18.70;99.90
19152;DHT22;9708;53.114;9.388;2022-08-16T05:14:48;18.90;99.90
19152;DHT22;9708;53.114;9.388;2022-08-16T05:17:16;19.10;99.90
19152;DHT22;9708;53.114;9.388;2022-08-16T05:19:43;19.40;99.90
19152;DHT22;9708;53.114;9.388;2022-08-16T05:22:10;19.90;99.90
19152;DHT22;9708;53.114;9.388;2022-08-16T05:24:38;20.80;99.90
19152;DHT22;9708;53.114;9.388;2022-08-16T05:27:06;21.40;99.90
19152;DHT22;9708;53.114;9.388;2022-08-16T05:29:34;22.00;99.90
19152;DHT22;9708;53.114;9.388;2022-08-16T05:32:01;22.10;99.90
19152;DHT22;9708;53.114;9.388;2022-08-16T05:34:28;22.40;99.90
19152;DHT22;9708;53.114;9.388;2022-08-16T05:36:57;22.60;99.90
19152;DHT22;9708;53.114;9.388;2022-08-16T05:39:25;23.10;99.90
19152;DHT22;9708;53.114;9.388;2022-08-16T05:41:55;23.40;99.90
19152;DHT22;9708;53.114;9.388;2022-08-16T05:44:23;23.50;99.90
19152;DHT22;9708;53.114;9.388;2022-08-16T05:46:51;23.40;99.90
19152;DHT22;9708;53.114;9.388;2022-08-16T05:49:18;22.70;99.90
19152;DHT22;9708;53.114;9.388;2022-08-16T05:51:45;22.40;99.90
19152;DHT22;9708;53.114;9.388;2022-08-16T05:54:14;22.10;99.90
19152;DHT22;9708;53.114;9.388;2022-08-16T05:56:43;21.60;99.90
19152;DHT22;9708;53.114;9.388;2022-08-16T05:59:13;21.50;99.90
19152;DHT22;9708;53.114;9.388;2022-08-16T06:01:41;21.30;99.90
19152;DHT22;9708;53.114;9.388;2022-08-16T06:04:10;21.20;99.90
19152;DHT22;9708;53.114;9.388;2022-08-16T06:06:38;21.00;99.90
19152;DHT22;9708;53.114;9.388;2022-08-16T06:09:08;20.90;99.90
19152;DHT22;9708;53.114;9.388;2022-08-16T06:11:36;21.00;99.90
19152;DHT22;9708;53.114;9.388;2022-08-16T06:14:07;21.00;99.90
19152;DHT22;9708;53.114;9.388;2022-08-16T06:16:36;21.10;99.90
19152;DHT22;9708;53.114;9.388;2022-08-16T06:19:05;21.00;99.90
19152;DHT22;9708;53.114;9.388;2022-08-16T06:21:37;21.00;99.90
19152;DHT22;9708;53.114;9.388;2022-08-16T06:24:04;21.00;99.90
19152;DHT22;9708;53.114;9.388;2022-08-16T06:26:31;21.10;99.90
19152;DHT22;9708;53.114;9.388;2022-08-16T06:29:00;21.20;99.90
19152;DHT22;9708;53.114;9.388;2022-08-16T06:31:27;21.10;99.90
19152;DHT22;9708;53.114;9.388;2022-08-16T06:33:57;21.10;99.90
19152;DHT22;9708;53.114;9.388;2022-08-16T06:36:24;21.40;99.90
19152;DHT22;9708;53.114;9.388;2022-08-16T06:38:51;21.30;99.90
19152;DHT22;9708;53.114;9.388;2022-08-16T06:41:18;21.30;99.90
19152;DHT22;9708;53.114;9.388;2022-08-16T06:43:45;21.30;99.90
19152;DHT22;9708;53.114;9.388;2022-08-16T06:46:21;21.30;99.90
19152;DHT22;9708;53.114;9.388;2022-08-16T06:48:49;21.40;99.90
19152;DHT22;9708;53.114;9.388;2022-08-16T06:51:17;21.50;99.90
19152;DHT22;9708;53.114;9.388;2022-08-16T06:53:43;21.60;99.90
19152;DHT22;9708;53.114;9.388;2022-08-16T06:56:10;21.60;99.90
19152;DHT22;9708;53.114;9.388;2022-08-16T06:58:37;21.90;99.90
19152;DHT22;9708;53.114;9.388;2022-08-16T07:01:04;21.80;99.90
19152;DHT22;9708;53.114;9.388;2022-08-16T07:03:31;21.90;99.90
19152;DHT22;9708;53.114;9.388;2022-08-16T07:05:58;21.80;99.90
19152;DHT22;9708;53.114;9.388;2022-08-16T07:08:26;21.80;99.90
19152;DHT22;9708;53.114;9.388;2022-08-16T07:10:54;21.80;99.90
19152;DHT22;9708;53.114;9.388;2022-08-16T07:13:21;21.70;99.90
19152;DHT22;9708;53.114;9.388;2022-08-16T07:15:48;21.80;99.90
19152;DHT22;9708;53.114;9.388;2022-08-16T07:18:15;21.90;99.90
19152;DHT22;9708;53.114;9.388;2022-08-16T07:20:44;22.00;99.90
19152;DHT22;9708;53.114;9.388;2022-08-16T07:23:11;22.00;99.90
19152;DHT22;9708;53.114;9.388;2022-08-16T07:25:40;22.00;99.90
19152;DHT22;9708;53.114;9.388;2022-08-16T07:28:07;22.20;99.90
19152;DHT22;9708;53.114;9.388;2022-08-16T07:30:34;22.30;99.90
19152;DHT22;9708;53.114;9.388;2022-08-16T07:33:03;22.40;99.90
19152;DHT22;9708;53.114;9.388;2022-08-16T07:35:32;22.90;99.90
19152;DHT22;9708;53.114;9.388;2022-08-16T07:37:58;23.40;99.90
19152;DHT22;9708;53.114;9.388;2022-08-16T07:40:25;23.70;99.90
19152;DHT22;9708;53.114;9.388;2022-08-16T07:42:53;24.00;99.90
19152;DHT22;9708;53.114;9.388;2022-08-16T07:45:20;24.40;99.90
19152;DHT22;9708;53.114;9.388;2022-08-16T07:47:47;24.70;99.90
19152;DHT22;9708;53.114;9.388;2022-08-16T07:50:14;24.40;99.90
19152;DHT22;9708;53.114;9.388;2022-08-16T07:52:42;24.40;99.90
19152;DHT22;9708;53.114;9.388;2022-08-16T07:55:11;24.90;99.90
19152;DHT22;9708;53.114;9.388;2022-08-16T07:57:40;25.10;99.90
19152;DHT22;9708;53.114;9.388;2022-08-16T08:00:11;25.90;99.90
19152;DHT22;9708;53.114;9.388;2022-08-16T08:02:38;25.70;99.90
19152;DHT22;9708;53.114;9.388;2022-08-16T08:05:06;25.90;99.90
19152;DHT22;9708;53.114;9.388;2022-08-16T08:07:33;26.40;99.90
19152;DHT22;9708;53.114;9.388;2022-08-16T08:10:03;26.50;99.90
19152;DHT22;9708;53.114;9.388;2022-08-16T08:12:33;25.80;99.90
19152;DHT22;9708;53.114;9.388;2022-08-16T08:15:01;26.00;99.90
19152;DHT22;9708;53.114;9.388;2022-08-16T08:17:29;26.30;99.90
19152;DHT22;9708;53.114;9.388;2022-08-16T08:19:58;26.60;99.90
19152;DHT22;9708;53.114;9.388;2022-08-16T08:22:25;26.40;99.90
19152;DHT22;9708;53.114;9.388;2022-08-16T08:24:55;26.70;99.90
19152;DHT22;9708;53.114;9.388;2022-08-16T08:27:23;26.40;99.90
19152;DHT22;9708;53.114;9.388;2022-08-16T08:29:50;26.70;99.90
19152;DHT22;9708;53.114;9.388;2022-08-16T08:32:19;27.00;99.90
19152;DHT22;9708;53.114;9.388;2022-08-16T08:34:47;26.90;99.90
19152;DHT22;9708;53.114;9.388;2022-08-16T08:37:14;27.50;99.90
19152;DHT22;9708;53.114;9.388;2022-08-16T08:39:41;27.90;99.90
19152;DHT22;9708;53.114;9.388;2022-08-16T08:42:08;28.40;99.90
19152;DHT22;9708;53.114;9.388;2022-08-16T08:44:35;28.70;99.90
19152;DHT22;9708;53.114;9.388;2022-08-16T08:47:05;28.10;99.90
19152;DHT22;9708;53.114;9.388;2022-08-16T08:49:33;28.30;99.90
19152;DHT22;9708;53.114;9.388;2022-08-16T08:52:03;28.30;99.90
19152;DHT22;9708;53.114;9.388;2022-08-16T08:54:30;28.80;99.90
19152;DHT22;9708;53.114;9.388;2022-08-16T08:56:57;29.30;99.90
19152;DHT22;9708;53.114;9.388;2022-08-16T08:59:25;29.50;99.90
19152;DHT22;9708;53.114;9.388;2022-08-16T09:01:51;29.20;99.90
19152;DHT22;9708;53.114;9.388;2022-08-16T09:04:19;28.20;99.90
19152;DHT22;9708;53.114;9.388;2022-08-16T09:06:45;27.70;99.90
19152;DHT22;9708;53.114;9.388;2022-08-16T09:09:14;27.40;99.90
19152;DHT22;9708;53.114;9.388;2022-08-16T09:11:40;27.50;99.90
19152;DHT22;9708;53.114;9.388;2022-08-16T09:14:09;27.40;99.90
19152;DHT22;9708;53.114;9.388;2022-08-16T09:16:35;27.80;99.90
19152;DHT22;9708;53.114;9.388;2022-08-16T09:19:03;27.50;99.90
19152;DHT22;9708;53.114;9.388;2022-08-16T09:21:30;28.00;99.90
19152;DHT22;9708;53.114;9.388;2022-08-16T09:23:56;27.60;99.90
19152;DHT22;9708;53.114;9.388;2022-08-16T09:26:25;27.50;99.90
19152;DHT22;9708;53.114;9.388;2022-08-16T09:28:56;27.40;99.90
19152;DHT22;9708;53.114;9.388;2022-08-16T09:31:23;27.50;99.90
19152;DHT22;9708;53.114;9.388;2022-08-16T09:33:50;27.70;99.90
19152;DHT22;9708;53.114;9.388;2022-08-16T09:36:19;27.70;99.90
19152;DHT22;9708;53.114;9.388;2022-08-16T09:38:46;27.50;99.90
19152;DHT22;9708;53.114;9.388;2022-08-16T09:41:12;27.40;99.90
19152;DHT22;9708;53.114;9.388;2022-08-16T09:43:42;27.20;99.90
19152;DHT22;9708;53.114;9.388;2022-08-16T09:46:09;27.50;99.90
19152;DHT22;9708;53.114;9.388;2022-08-16T09:48:36;27.40;99.90
19152;DHT22;9708;53.114;9.388;2022-08-16T09:51:07;27.40;99.90
19152;DHT22;9708;53.114;9.388;2022-08-16T09:53:35;27.30;99.90
19152;DHT22;9708;53.114;9.388;2022-08-16T09:56:06;26.90;99.90
19152;DHT22;9708;53.114;9.388;2022-08-16T09:58:34;26.70;99.90
19152;DHT22;9708;53.114;9.388;2022-08-16T10:01:02;26.60;99.90
19152;DHT22;9708;53.114;9.388;2022-08-16T10:03:29;26.40;99.90
19152;DHT22;9708;53.114;9.388;2022-08-16T10:05:56;26.40;99.90
19152;DHT22;9708;53.114;9.388;2022-08-16T10:08:26;26.50;99.90
19152;DHT22;9708;53.114;9.388;2022-08-16T10:10:53;26.50;99.90
19152;DHT22;9708;53.114;9.388;2022-08-16T10:13:37;26.50;99.90
19152;DHT22;9708;53.114;9.388;2022-08-16T10:16:05;26.80;99.90
19152;DHT22;9708;53.114;9.388;2022-08-16T10:18:33;27.80;99.90
19152;DHT22;9708;53.114;9.388;2022-08-16T10:21:00;28.40;99.90
19152;DHT22;9708;53.114;9.388;2022-08-16T10:23:26;28.30;99.90
19152;DHT22;9708;53.114;9.388;2022-08-16T10:25:54;28.80;99.90
19152;DHT22;9708;53.114;9.388;2022-08-16T10:28:21;28.70;99.90
19152;DHT22;9708;53.114;9.388;2022-08-16T10:30:48;29.20;99.90
19152;DHT22;9708;53.114;9.388;2022-08-16T10:33:16;29.40;99.90
19152;DHT22;9708;53.114;9.388;2022-08-16T10:35:44;29.40;99.90
19152;DHT22;9708;53.114;9.388;2022-08-16T10:38:11;29.20;99.90
19152;DHT22;9708;53.114;9.388;2022-08-16T10:40:39;29.40;99.90
19152;DHT22;9708;53.114;9.388;2022-08-16T10:43:06;29.40;99.90
19152;DHT22;9708;53.114;9.388;2022-08-16T10:45:34;29.30;99.90
19152;DHT22;9708;53.114;9.388;2022-08-16T10:48:01;29.60;99.90
19152;DHT22;9708;53.114;9.388;2022-08-16T10:50:30;29.00;99.90
19152;DHT22;9708;53.114;9.388;2022-08-16T10:52:57;29.00;99.90
19152;DHT22;9708;53.114;9.388;2022-08-16T10:55:24;29.20;99.90
19152;DHT22;9708;53.114;9.388;2022-08-16T10:57:53;28.90;99.90
19152;DHT22;9708;53.114;9.388;2022-08-16T11:00:20;28.60;99.90
19152;DHT22;9708;53.114;9.388;2022-08-16T11:02:47;29.50;99.90
19152;DHT22;9708;53.114;9.388;2022-08-16T11:05:16;29.90;99.90
19152;DHT22;9708;53.114;9.388;2022-08-16T11:07:50;30.40;99.90
19152;DHT22;9708;53.114;9.388;2022-08-16T11:10:20;30.10;99.90
19152;DHT22;9708;53.114;9.388;2022-08-16T11:12:48;29.70;99.90
19152;DHT22;9708;53.114;9.388;2022-08-16T11:15:15;29.70;99.90
19152;DHT22;9708;53.114;9.388;2022-08-16T11:17:42;30.00;99.90
19152;DHT22;9708;53.114;9.388;2022-08-16T11:20:09;30.00;99.90
19152;DHT22;9708;53.114;9.388;2022-08-16T11:22:38;30.50;99.90
19152;DHT22;9708;53.114;9.388;2022-08-16T11:25:09;30.70;99.90
19152;DHT22;9708;53.114;9.388;2022-08-16T11:27:36;30.10;99.90
19152;DHT22;9708;53.114;9.388;2022-08-16T11:30:04;30.00;99.90
19152;DHT22;9708;53.114;9.388;2022-08-16T11:32:32;30.70;99.90
19152;DHT22;9708;53.114;9.388;2022-08-16T11:35:00;31.40;99.90
19152;DHT22;9708;53.114;9.388;2022-08-16T11:37:27;31.90;99.90
19152;DHT22;9708;53.114;9.388;2022-08-16T11:39:54;31.20;99.90
19152;DHT22;9708;53.114;9.388;2022-08-16T11:42:23;30.80;99.90
19152;DHT22;9708;53.114;9.388;2022-08-16T11:44:51;30.40;99.90
19152;DHT22;9708;53.114;9.388;2022-08-16T11:47:18;30.30;99.90
19152;DHT22;9708;53.114;9.388;2022-08-16T11:49:44;29.90;99.90
19152;DHT22;9708;53.114;9.388;2022-08-16T11:52:11;29.80;99.90
19152;DHT22;9708;53.114;9.388;2022-08-16T11:54:38;29.80;99.90
19152;DHT22;9708;53.114;9.388;2022-08-16T11:57:06;30.40;99.90
19152;DHT22;9708;53.114;9.388;2022-08-16T11:59:34;31.30;99.90
19152;DHT22;9708;53.114;9.388;2022-08-16T12:02:02;31.20;99.90
19152;DHT22;9708;53.114;9.388;2022-08-16T12:04:30;30.80;99.90
19152;DHT22;9708;53.114;9.388;2022-08-16T12:06:58;30.60;99.90
19152;DHT22;9708;53.114;9.388;2022-08-16T12:09:25;30.60;99.90
19152;DHT22;9708;53.114;9.388;2022-08-16T12:11:52;30.20;99.90
19152;DHT22;9708;53.114;9.388;2022-08-16T12:14:20;29.80;99.90
19152;DHT22;9708;53.114;9.388;2022-08-16T12:16:48;30.00;99.90
19152;DHT22;9708;53.114;9.388;2022-08-16T12:19:16;29.90;99.90
19152;DHT22;9708;53.114;9.388;2022-08-16T12:21:44;29.70;99.90
19152;DHT22;9708;53.114;9.388;2022-08-16T12:24:10;29.70;99.90
19152;DHT22;9708;53.114;9.388;2022-08-16T12:26:39;30.10;99.90
19152;DHT22;9708;53.114;9.388;2022-08-16T12:29:06;30.30;99.90
19152;DHT22;9708;53.114;9.388;2022-08-16T12:31:33;30.80;99.90
19152;DHT22;9708;53.114;9.388;2022-08-16T12:34:02;31.50;99.90
19152;DHT22;9708;53.114;9.388;2022-08-16T12:36:32;31.50;99.90
19152;DHT22;9708;53.114;9.388;2022-08-16T12:39:00;31.90;99.90
19152;DHT22;9708;53.114;9.388;2022-08-16T12:41:27;31.70;99.90
19152;DHT22;9708;53.114;9.388;2022-08-16T12:43:57;31.10;99.90
19152;DHT22;9708;53.114;9.388;2022-08-16T12:46:24;30.60;99.90
19152;DHT22;9708;53.114;9.388;2022-08-16T12:48:51;30.10;99.90
19152;DHT22;9708;53.114;9.388;2022-08-16T12:51:28;29.90;99.90
19152;DHT22;9708;53.114;9.388;2022-08-16T12:53:58;29.90;99.90
19152;DHT22;9708;53.114;9.388;2022-08-16T12:56:27;30.30;99.90
19152;DHT22;9708;53.114;9.388;2022-08-16T12:58:55;30.60;99.90
19152;DHT22;9708;53.114;9.388;2022-08-16T13:01:24;30.40;99.90
19152;DHT22;9708;53.114;9.388;2022-08-16T13:03:52;30.70;99.90
19152;DHT22;9708;53.114;9.388;2022-08-16T13:06:20;30.80;99.90
19152;DHT22;9708;53.114;9.388;2022-08-16T13:08:48;30.50;99.90
19152;DHT22;9708;53.114;9.388;2022-08-16T13:11:19;30.70;99.90
19152;DHT22;9708;53.114;9.388;2022-08-16T13:13:48;31.10;99.90
19152;DHT22;9708;53.114;9.388;2022-08-16T13:16:15;31.10;99.90
19152;DHT22;9708;53.114;9.388;2022-08-16T13:18:42;30.80;99.90
19152;DHT22;9708;53.114;9.388;2022-08-16T13:21:08;30.70;99.90
19152;DHT22;9708;53.114;9.388;2022-08-16T13:23:36;31.00;99.90
19152;DHT22;9708;53.114;9.388;2022-08-16T13:26:07;31.50;99.90
19152;DHT22;9708;53.114;9.388;2022-08-16T13:28:34;31.00;99.90
19152;DHT22;9708;53.114;9.388;2022-08-16T13:31:01;30.40;99.90
19152;DHT22;9708;53.114;9.388;2022-08-16T13:33:32;30.20;99.90
19152;DHT22;9708;53.114;9.388;2022-08-16T13:36:03;30.80;99.90
19152;DHT22;9708;53.114;9.388;2022-08-16T13:38:31;31.10;99.90
19152;DHT22;9708;53.114;9.388;2022-08-16T13:40:59;31.90;99.90
19152;DHT22;9708;53.114;9.388;2022-08-16T13:43:29;32.30;99.90
19152;DHT22;9708;53.114;9.388;2022-08-16T13:45:57;32.20;99.90
19152;DHT22;9708;53.114;9.388;2022-08-16T13:48:27;32.20;99.90
19152;DHT22;9708;53.114;9.388;2022-08-16T13:50:55;32.30;99.90
19152;DHT22;9708;53.114;9.388;2022-08-16T13:53:23;32.20;99.90
19152;DHT22;9708;53.114;9.388;2022-08-16T13:55:51;31.90;99.90
19152;DHT22;9708;53.114;9.388;2022-08-16T13:58:19;32.10;99.90
19152;DHT22;9708;53.114;9.388;2022-08-16T14:00:48;32.00;99.90
19152;DHT22;9708;53.114;9.388;2022-08-16T14:03:15;31.30;99.90
19152;DHT22;9708;53.114;9.388;2022-08-16T14:05:42;30.80;99.90
19152;DHT22;9708;53.114;9.388;2022-08-16T14:08:09;31.00;99.90
19152;DHT22;9708;53.114;9.388;2022-08-16T14:10:36;31.00;99.90
19152;DHT22;9708;53.114;9.388;2022-08-16T14:13:03;31.30;99.90
19152;DHT22;9708;53.114;9.388;2022-08-16T14:15:31;31.00;99.90
19152;DHT22;9708;53.114;9.388;2022-08-16T14:17:59;31.10;99.90
19152;DHT22;9708;53.114;9.388;2022-08-16T14:20:26;31.30;99.90
19152;DHT22;9708;53.114;9.388;2022-08-16T14:22:53;31.00;99.90
19152;DHT22;9708;53.114;9.388;2022-08-16T14:25:21;31.10;99.90
19152;DHT22;9708;53.114;9.388;2022-08-16T14:27:48;31.00;99.90
19152;DHT22;9708;53.114;9.388;2022-08-16T14:30:17;30.80;99.90
19152;DHT22;9708;53.114;9.388;2022-08-16T14:32:45;30.70;99.90
19152;DHT22;9708;53.114;9.388;2022-08-16T14:35:15;30.70;99.90
19152;DHT22;9708;53.114;9.388;2022-08-16T14:37:42;30.70;99.90
19152;DHT22;9708;53.114;9.388;2022-08-16T14:40:12;31.00;99.90
19152;DHT22;9708;53.114;9.388;2022-08-16T14:42:40;30.80;99.90
19152;DHT22;9708;53.114;9.388;2022-08-16T14:45:08;30.50;99.90
19152;DHT22;9708;53.114;9.388;2022-08-16T14:47:36;30.30;99.90
19152;DHT22;9708;53.114;9.388;2022-08-16T14:50:03;29.80;99.90
19152;DHT22;9708;53.114;9.388;2022-08-16T14:52:32;29.60;99.90
19152;DHT22;9708;53.114;9.388;2022-08-16T14:54:59;29.70;99.90
19152;DHT22;9708;53.114;9.388;2022-08-16T14:57:26;29.80;99.90
19152;DHT22;9708;53.114;9.388;2022-08-16T14:59:53;30.00;99.90
19152;DHT22;9708;53.114;9.388;2022-08-16T15:02:23;30.10;99.90
19152;DHT22;9708;53.114;9.388;2022-08-16T15:04:50;30.10;99.90
19152;DHT22;9708;53.114;9.388;2022-08-16T15:07:19;29.90;99.90
19152;DHT22;9708;53.114;9.388;2022-08-16T15:09:47;29.70;99.90
19152;DHT22;9708;53.114;9.388;2022-08-16T15:12:16;29.70;99.90
19152;DHT22;9708;53.114;9.388;2022-08-16T15:14:44;29.60;99.90
19152;DHT22;9708;53.114;9.388;2022-08-16T15:17:12;29.40;99.90
19152;DHT22;9708;53.114;9.388;2022-08-16T15:19:40;29.40;99.90
19152;DHT22;9708;53.114;9.388;2022-08-16T15:22:09;29.50;99.90
19152;DHT22;9708;53.114;9.388;2022-08-16T15:24:37;29.40;99.90
19152;DHT22;9708;53.114;9.388;2022-08-16T15:27:05;29.20;99.90
19152;DHT22;9708;53.114;9.388;2022-08-16T15:29:32;28.90;99.90
19152;DHT22;9708;53.114;9.388;2022-08-16T15:32:01;28.60;99.90
19152;DHT22;9708;53.114;9.388;2022-08-16T15:34:30;28.40;99.90
19152;DHT22;9708;53.114;9.388;2022-08-16T15:36:57;28.20;99.90
19152;DHT22;9708;53.114;9.388;2022-08-16T15:39:23;28.10;99.90
19152;DHT22;9708;53.114;9.388;2022-08-16T15:42:03;28.00;99.90
19152;DHT22;9708;53.114;9.388;2022-08-16T15:44:33;27.90;99.90
19152;DHT22;9708;53.114;9.388;2022-08-16T15:47:04;27.80;99.90
19152;DHT22;9708;53.114;9.388;2022-08-16T15:49:32;27.70;99.90